createdAt,value
2023-02-28T00:00:12.624Z,32.50
2023-02-28T00:01:16.621Z,32.50
2023-02-28T00:02:19.066Z,32.40
2023-02-28T00:03:21.503Z,33.00
2023-02-28T00:04:23.816Z,32.70
2023-02-28T00:05:27.973Z,33.30
2023-02-28T00:06:30.399Z,31.00
2023-02-28T00:07:32.996Z,31.20
2023-02-28T00:08:35.626Z,32.00
2023-02-28T00:09:37.936Z,32.80
2023-02-28T00:10:40.286Z,33.20
2023-02-28T00:11:42.684Z,33.70
2023-02-28T00:12:45.127Z,33.60
2023-02-28T00:13:48.744Z,33.70
2023-02-28T00:14:51.385Z,33.60
2023-02-28T00:16:01.423Z,33.60
2023-02-28T00:17:03.939Z,33.70
2023-02-28T00:18:18.107Z,33.50
2023-02-28T00:19:20.412Z,33.50
2023-02-28T00:20:22.856Z,33.60
2023-02-28T00:21:25.195Z,33.70
2023-02-28T00:22:27.488Z,33.70
2023-02-28T00:23:29.946Z,33.70
2023-02-28T00:24:32.260Z,33.50
2023-02-28T00:25:34.574Z,33.60
2023-02-28T00:26:36.840Z,33.60
2023-02-28T00:27:40.266Z,33.50
2023-02-28T00:28:42.679Z,33.50
2023-02-28T00:29:47.001Z,33.50
2023-02-28T00:30:49.506Z,33.50
2023-02-28T00:31:51.840Z,33.50
2023-02-28T00:32:54.245Z,33.60
2023-02-28T00:33:56.540Z,33.60
2023-02-28T00:34:58.850Z,33.60
2023-02-28T00:36:09.318Z,33.70
2023-02-28T00:37:14.491Z,33.50
2023-02-28T00:38:17.119Z,33.40
2023-02-28T00:39:19.430Z,33.50
2023-02-28T00:40:21.962Z,33.50
2023-02-28T00:41:24.231Z,33.50
2023-02-28T00:42:27.485Z,33.60
2023-02-28T00:43:29.836Z,33.40
2023-02-28T00:44:32.502Z,33.40
2023-02-28T00:45:34.820Z,33.50
2023-02-28T00:46:37.146Z,33.40
2023-02-28T00:47:39.497Z,33.50
2023-02-28T00:48:42.112Z,33.50
2023-02-28T00:49:44.524Z,33.50
2023-02-28T00:50:50.512Z,33.60
2023-02-28T00:51:53.961Z,33.70
2023-02-28T00:52:56.297Z,33.70
2023-02-28T00:53:58.629Z,33.70
2023-02-28T00:55:01.031Z,33.60
2023-02-28T00:56:04.502Z,33.70
2023-02-28T00:57:07.606Z,33.50
2023-02-28T00:58:09.916Z,33.60
2023-02-28T00:59:12.989Z,33.80
2023-02-28T01:00:15.787Z,33.70
2023-02-28T01:01:18.951Z,33.70
2023-02-28T01:02:23.180Z,33.70
2023-02-28T01:03:25.470Z,33.70
2023-02-28T01:04:27.836Z,33.70
2023-02-28T01:05:30.169Z,33.80
2023-02-28T01:06:32.931Z,33.60
2023-02-28T01:07:41.284Z,33.70
2023-02-28T01:08:43.582Z,33.70
2023-02-28T01:09:45.950Z,33.80
2023-02-28T01:10:48.663Z,33.80
2023-02-28T01:11:51.283Z,32.80
2023-02-28T01:12:53.600Z,32.60
2023-02-28T01:13:56.038Z,32.50
2023-02-28T01:14:58.866Z,32.50
2023-02-28T01:16:01.258Z,32.40
2023-02-28T01:17:03.936Z,32.40
2023-02-28T01:18:07.977Z,32.50
2023-02-28T01:19:10.525Z,33.00
2023-02-28T01:20:14.537Z,32.50
2023-02-28T01:21:19.661Z,32.90
2023-02-28T01:22:22.364Z,33.00
2023-02-28T01:23:25.027Z,33.10
2023-02-28T01:24:27.453Z,32.90
2023-02-28T01:25:30.456Z,32.50
2023-02-28T01:26:33.303Z,32.50
2023-02-28T01:27:36.748Z,32.60
2023-02-28T01:28:39.056Z,33.10
2023-02-28T01:29:41.496Z,33.80
2023-02-28T01:30:49.727Z,32.90
2023-02-28T01:31:52.270Z,32.60
2023-02-28T01:32:54.613Z,33.40
2023-02-28T01:33:56.916Z,33.50
2023-02-28T01:34:59.293Z,33.50
2023-02-28T01:36:03.539Z,33.10
2023-02-28T01:37:05.904Z,33.00
2023-02-28T01:38:21.352Z,32.70
2023-02-28T01:39:24.837Z,32.80
2023-02-28T01:40:27.145Z,32.70
2023-02-28T01:41:33.109Z,32.50
2023-02-28T01:42:36.637Z,33.10
2023-02-28T01:43:44.894Z,33.20
2023-02-28T01:44:57.097Z,33.50
2023-02-28T01:46:00.992Z,33.10
2023-02-28T01:47:03.331Z,32.80
2023-02-28T01:48:09.812Z,32.60
2023-02-28T01:49:18.809Z,32.80
2023-02-28T01:50:25.122Z,32.70
2023-02-28T01:51:46.530Z,32.60
2023-02-28T01:52:49.784Z,33.30
2023-02-28T01:54:01.819Z,33.00
2023-02-28T01:55:07.555Z,33.00
2023-02-28T01:56:13.387Z,33.20
2023-02-28T01:57:21.614Z,33.10
2023-02-28T01:58:24.293Z,33.20
2023-02-28T01:59:34.000Z,32.90
2023-02-28T02:00:36.520Z,33.00
2023-02-28T02:01:39.029Z,33.10
2023-02-28T02:02:44.302Z,33.20
2023-02-28T02:03:46.664Z,32.90
2023-02-28T02:05:03.582Z,33.10
2023-02-28T02:06:08.681Z,33.00
2023-02-28T02:07:11.856Z,33.20
2023-02-28T02:08:25.680Z,32.80
2023-02-28T02:09:28.003Z,32.90
2023-02-28T02:10:47.373Z,33.20
2023-02-28T02:11:49.787Z,33.60
2023-02-28T02:13:11.384Z,32.60
2023-02-28T02:14:29.990Z,32.90
2023-02-28T02:15:34.881Z,33.00
2023-02-28T02:16:52.956Z,33.10
2023-02-28T02:18:02.740Z,33.10
2023-02-28T02:19:47.103Z,33.10
2023-02-28T02:21:12.892Z,33.70
2023-02-28T02:22:53.751Z,32.90
2023-02-28T02:24:18.249Z,33.50
2023-02-28T02:25:50.121Z,33.90
2023-02-28T02:27:09.655Z,33.60
2023-02-28T02:28:21.101Z,33.70
2023-02-28T02:30:11.022Z,33.70
2023-02-28T02:31:43.987Z,33.50
2023-02-28T02:33:14.338Z,33.50
2023-02-28T02:34:24.700Z,34.00
2023-02-28T02:36:08.385Z,33.70
2023-02-28T02:37:24.582Z,33.70
2023-02-28T02:38:47.720Z,33.50
2023-02-28T02:40:18.821Z,33.30
2023-02-28T02:41:51.966Z,33.80
2023-02-28T02:43:02.420Z,33.90
2023-02-28T02:44:22.680Z,34.10
2023-02-28T02:45:39.171Z,34.00
2023-02-28T02:46:45.889Z,34.10
2023-02-28T02:47:50.404Z,33.70
2023-02-28T02:48:55.683Z,33.60
2023-02-28T02:50:01.919Z,34.00
2023-02-28T02:51:12.901Z,33.90
2023-02-28T02:52:22.084Z,33.80
2023-02-28T02:53:37.988Z,34.00
2023-02-28T02:54:44.492Z,34.30
2023-02-28T02:55:53.889Z,34.20
2023-02-28T02:57:00.028Z,34.30
2023-02-28T02:58:09.294Z,34.50
2023-02-28T02:59:15.011Z,33.90
2023-02-28T03:00:21.502Z,33.70
2023-02-28T03:01:30.186Z,33.90
2023-02-28T03:02:35.398Z,34.60
2023-02-28T03:03:38.430Z,34.40
2023-02-28T03:04:52.320Z,34.30
2023-02-28T03:06:00.175Z,34.00
2023-02-28T03:07:02.588Z,33.80
2023-02-28T03:08:06.539Z,33.90
2023-02-28T03:09:08.952Z,33.90
2023-02-28T03:10:31.374Z,34.30
2023-02-28T03:11:35.865Z,34.10
2023-02-28T03:12:55.987Z,34.30
2023-02-28T03:14:21.638Z,34.10
2023-02-28T03:15:47.066Z,33.90
2023-02-28T03:17:22.001Z,33.90
2023-02-28T03:18:41.389Z,34.40
2023-02-28T03:19:50.145Z,34.20
2023-02-28T03:21:24.292Z,33.70
2023-02-28T03:22:41.410Z,34.50
2023-02-28T03:23:54.722Z,34.20
2023-02-28T03:25:08.540Z,34.10
2023-02-28T03:26:23.709Z,34.00
2023-02-28T03:27:31.804Z,33.90
2023-02-28T03:28:39.932Z,34.10
2023-02-28T03:29:53.105Z,33.90
2023-02-28T03:31:04.046Z,34.00
2023-02-28T03:32:30.769Z,34.30
2023-02-28T03:33:39.101Z,33.90
2023-02-28T03:35:06.925Z,33.80
2023-02-28T03:36:17.003Z,33.90
2023-02-28T03:37:23.574Z,34.10
2023-02-28T03:39:04.978Z,34.00
2023-02-28T03:40:18.150Z,34.00
2023-02-28T03:41:28.832Z,34.70
2023-02-28T03:42:34.882Z,34.40
2023-02-28T03:43:42.748Z,34.10
2023-02-28T03:45:17.460Z,34.20
2023-02-28T03:46:24.659Z,34.30
2023-02-28T03:47:50.476Z,34.60
2023-02-28T03:49:01.517Z,34.20
2023-02-28T03:50:08.112Z,34.40
2023-02-28T03:51:15.826Z,34.20
2023-02-28T03:52:22.410Z,34.40
2023-02-28T03:53:37.120Z,34.10
2023-02-28T03:54:51.487Z,34.40
2023-02-28T03:56:17.233Z,34.20
2023-02-28T03:57:35.863Z,33.90
2023-02-28T03:58:56.545Z,34.20
2023-02-28T04:00:35.486Z,33.70
2023-02-28T04:01:44.547Z,34.00
2023-02-28T04:02:47.026Z,34.20
2023-02-28T04:03:50.901Z,34.30
2023-02-28T04:04:53.232Z,34.40
2023-02-28T04:05:57.848Z,34.30
2023-02-28T04:07:12.285Z,34.60
2023-02-28T04:08:14.609Z,34.50
2023-02-28T04:09:17.021Z,34.30
2023-02-28T04:10:19.766Z,34.40
2023-02-28T04:11:38.444Z,34.30
2023-02-28T04:12:40.829Z,34.30
2023-02-28T04:13:45.534Z,34.50
2023-02-28T04:14:49.083Z,34.50
2023-02-28T04:15:51.565Z,35.00
2023-02-28T04:16:54.031Z,34.30
2023-02-28T04:17:56.426Z,34.40
2023-02-28T04:19:03.039Z,34.40
2023-02-28T04:20:10.606Z,34.30
2023-02-28T04:21:13.176Z,34.30
2023-02-28T04:22:15.769Z,34.50
2023-02-28T04:23:18.103Z,34.60
2023-02-28T04:24:26.102Z,35.00
2023-02-28T04:25:28.447Z,34.90
2023-02-28T04:26:35.739Z,35.00
2023-02-28T04:27:38.089Z,35.20
2023-02-28T04:28:40.554Z,34.60
2023-02-28T04:29:45.490Z,34.70
2023-02-28T04:30:47.943Z,34.40
2023-02-28T04:31:50.726Z,34.50
2023-02-28T04:32:53.171Z,34.50
2023-02-28T04:33:55.550Z,34.80
2023-02-28T04:34:57.905Z,34.70
2023-02-28T04:36:05.695Z,35.20
2023-02-28T04:37:13.595Z,35.30
2023-02-28T04:38:16.449Z,34.40
2023-02-28T04:39:19.400Z,34.20
2023-02-28T04:40:21.679Z,34.20
2023-02-28T04:41:24.711Z,34.60
2023-02-28T04:42:27.556Z,35.00
2023-02-28T04:43:31.058Z,34.40
2023-02-28T04:44:33.480Z,34.20
2023-02-28T04:45:36.235Z,33.90
2023-02-28T04:46:38.707Z,35.50
2023-02-28T04:47:41.255Z,32.20
2023-02-28T04:48:44.716Z,31.90
2023-02-28T04:49:47.034Z,34.10
2023-02-28T04:50:49.358Z,34.90
2023-02-28T04:51:51.739Z,35.80
2023-02-28T04:52:54.092Z,37.00
2023-02-28T04:53:56.688Z,37.40
2023-02-28T04:54:59.012Z,37.00
2023-02-28T04:56:01.725Z,37.50
2023-02-28T04:57:05.404Z,38.10
2023-02-28T04:58:10.012Z,38.20
2023-02-28T04:59:12.620Z,38.50
2023-02-28T05:00:17.662Z,39.20
2023-02-28T05:01:29.403Z,39.10
2023-02-28T05:02:32.115Z,38.90
2023-02-28T05:03:34.652Z,38.40
2023-02-28T05:04:37.680Z,38.30
2023-02-28T05:05:40.033Z,38.30
2023-02-28T05:06:42.650Z,38.50
2023-02-28T05:07:45.784Z,38.40
2023-02-28T05:08:48.406Z,38.30
2023-02-28T05:09:50.689Z,38.30
2023-02-28T05:10:53.098Z,38.40
2023-02-28T05:11:55.708Z,38.40
2023-02-28T05:12:58.149Z,38.30
2023-02-28T05:14:00.802Z,38.30
2023-02-28T05:15:05.828Z,38.70
2023-02-28T05:16:08.270Z,38.10
2023-02-28T05:17:11.247Z,37.90
2023-02-28T05:18:13.764Z,37.70
2023-02-28T05:19:16.161Z,37.70
2023-02-28T05:20:18.598Z,37.70
2023-02-28T05:21:38.715Z,38.20
2023-02-28T05:22:42.207Z,37.80
2023-02-28T05:23:44.885Z,37.80
2023-02-28T05:24:47.956Z,37.80
2023-02-28T05:25:50.280Z,37.90
2023-02-28T05:26:54.617Z,37.90
2023-02-28T05:27:56.998Z,37.90
2023-02-28T05:28:59.380Z,37.90
2023-02-28T05:30:04.419Z,37.90
2023-02-28T05:31:06.840Z,38.00
2023-02-28T05:32:11.622Z,38.00
2023-02-28T05:33:14.682Z,38.10
2023-02-28T05:34:17.223Z,38.00
2023-02-28T05:35:19.650Z,38.70
2023-02-28T05:36:22.589Z,38.20
2023-02-28T05:37:24.895Z,38.20
2023-02-28T05:38:27.981Z,39.40
2023-02-28T05:39:30.317Z,39.90
2023-02-28T05:40:32.891Z,39.10
2023-02-28T05:41:35.318Z,38.70
2023-02-28T05:42:38.849Z,38.60
2023-02-28T05:43:41.368Z,37.80
2023-02-28T05:44:43.682Z,37.30
2023-02-28T05:45:46.126Z,37.30
2023-02-28T05:46:48.456Z,38.20
2023-02-28T05:47:54.671Z,38.40
2023-02-28T05:48:58.949Z,38.30
2023-02-28T05:50:01.927Z,38.30
2023-02-28T05:51:05.254Z,38.50
2023-02-28T05:52:07.576Z,38.40
2023-02-28T05:53:09.934Z,38.60
2023-02-28T05:54:13.893Z,38.70
2023-02-28T05:55:16.597Z,38.60
2023-02-28T05:56:18.979Z,38.70
2023-02-28T05:57:24.563Z,38.70
2023-02-28T05:58:31.520Z,38.70
2023-02-28T05:59:34.195Z,38.80
2023-02-28T06:00:36.488Z,38.70
2023-02-28T06:01:42.079Z,38.80
2023-02-28T06:02:44.847Z,38.90
2023-02-28T06:03:47.317Z,38.90
2023-02-28T06:04:50.141Z,39.80
2023-02-28T06:05:52.720Z,39.30
2023-02-28T06:06:55.121Z,38.90
2023-02-28T06:07:57.609Z,39.00
2023-02-28T06:09:00.158Z,38.60
2023-02-28T06:10:02.534Z,38.60
2023-02-28T06:11:05.557Z,38.80
2023-02-28T06:12:08.259Z,38.80
2023-02-28T06:13:10.704Z,38.80
2023-02-28T06:14:17.639Z,39.20
2023-02-28T06:15:21.705Z,38.80
2023-02-28T06:16:25.382Z,38.80
2023-02-28T06:17:27.930Z,38.90
2023-02-28T06:18:30.274Z,39.30
2023-02-28T06:19:32.851Z,39.50
2023-02-28T06:20:35.536Z,39.60
2023-02-28T06:21:38.034Z,39.10
2023-02-28T06:22:40.885Z,39.10
2023-02-28T06:23:43.290Z,39.20
2023-02-28T06:24:45.810Z,39.30
2023-02-28T06:25:48.833Z,39.20
2023-02-28T06:26:51.706Z,39.10
2023-02-28T06:27:55.398Z,39.10
2023-02-28T06:28:58.044Z,39.20
2023-02-28T06:30:00.771Z,39.20
2023-02-28T06:31:08.700Z,39.20
2023-02-28T06:32:11.288Z,39.30
2023-02-28T06:33:13.729Z,39.30
2023-02-28T06:34:16.102Z,39.30
2023-02-28T06:35:18.708Z,39.30
2023-02-28T06:36:21.058Z,39.70
2023-02-28T06:37:26.759Z,39.70
2023-02-28T06:38:29.198Z,39.50
2023-02-28T06:39:32.150Z,39.70
2023-02-28T06:40:36.855Z,39.80
2023-02-28T06:41:53.592Z,40.00
2023-02-28T06:42:56.819Z,39.90
2023-02-28T06:43:59.261Z,40.00
2023-02-28T06:45:04.158Z,40.70
2023-02-28T06:46:09.081Z,40.10
2023-02-28T06:47:11.842Z,39.70
2023-02-28T06:48:14.352Z,40.30
2023-02-28T06:49:17.192Z,40.30
2023-02-28T06:50:22.728Z,40.10
2023-02-28T06:51:25.481Z,40.00
2023-02-28T06:52:28.131Z,39.80
2023-02-28T06:53:30.602Z,40.30
2023-02-28T06:54:33.345Z,39.90
2023-02-28T06:55:38.249Z,40.50
2023-02-28T06:56:41.252Z,40.20
2023-02-28T06:57:43.718Z,40.30
2023-02-28T06:58:51.273Z,40.40
2023-02-28T06:59:53.660Z,40.40
2023-02-28T07:00:57.177Z,40.60
2023-02-28T07:01:59.831Z,40.90
2023-02-28T07:03:02.518Z,40.80
2023-02-28T07:04:06.552Z,40.60
2023-02-28T07:05:09.426Z,40.80
2023-02-28T07:06:12.062Z,40.30
2023-02-28T07:07:15.118Z,40.50
2023-02-28T07:08:18.014Z,40.40
2023-02-28T07:09:20.640Z,40.00
2023-02-28T07:10:22.960Z,40.30
2023-02-28T07:11:27.883Z,40.30
2023-02-28T07:12:30.558Z,40.00
2023-02-28T07:13:33.347Z,40.20
2023-02-28T07:14:37.968Z,39.90
2023-02-28T07:15:43.662Z,40.70
2023-02-28T07:16:46.763Z,40.60
2023-02-28T07:17:49.522Z,40.00
2023-02-28T07:18:54.753Z,39.90
2023-02-28T07:19:57.250Z,40.50
2023-02-28T07:20:59.606Z,40.20
2023-02-28T07:22:03.714Z,40.70
2023-02-28T07:23:06.095Z,40.40
2023-02-28T07:24:08.527Z,40.70
2023-02-28T07:25:10.907Z,40.40
2023-02-28T07:26:17.827Z,40.50
2023-02-28T07:27:26.398Z,40.70
2023-02-28T07:28:28.961Z,40.90
2023-02-28T07:29:31.333Z,40.50
2023-02-28T07:30:33.736Z,40.30
2023-02-28T07:31:36.355Z,40.90
2023-02-28T07:32:38.679Z,40.80
2023-02-28T07:33:41.465Z,40.40
2023-02-28T07:34:43.762Z,40.70
2023-02-28T07:35:46.323Z,40.90
2023-02-28T07:36:48.664Z,40.70
2023-02-28T07:37:51.236Z,40.90
2023-02-28T07:38:54.142Z,41.00
2023-02-28T07:39:56.485Z,40.90
2023-02-28T07:40:58.764Z,40.90
2023-02-28T07:42:02.748Z,40.90
2023-02-28T07:43:05.087Z,41.10
2023-02-28T07:44:08.032Z,41.00
2023-02-28T07:45:12.539Z,40.40
2023-02-28T07:46:17.511Z,40.60
2023-02-28T07:47:20.181Z,40.90
2023-02-28T07:48:22.442Z,40.80
2023-02-28T07:49:24.748Z,40.80
2023-02-28T07:50:31.580Z,40.90
2023-02-28T07:51:34.318Z,41.40
2023-02-28T07:52:38.067Z,40.90
2023-02-28T07:53:40.610Z,40.30
2023-02-28T07:54:42.868Z,40.70
2023-02-28T07:55:45.149Z,40.90
2023-02-28T07:56:47.545Z,41.20
2023-02-28T07:57:49.873Z,41.30
2023-02-28T07:58:52.482Z,41.30
2023-02-28T07:59:54.795Z,41.40
2023-02-28T08:00:58.151Z,41.40
2023-02-28T08:02:00.659Z,41.40
2023-02-28T08:03:03.211Z,41.30
2023-02-28T08:04:05.539Z,41.60
2023-02-28T08:05:08.423Z,41.60
2023-02-28T08:06:19.339Z,41.60
2023-02-28T08:07:21.672Z,41.70
2023-02-28T08:08:24.474Z,41.70
2023-02-28T08:09:27.442Z,41.70
2023-02-28T08:10:29.709Z,41.70
2023-02-28T08:11:32.365Z,41.70
2023-02-28T08:12:34.744Z,41.70
2023-02-28T08:13:37.083Z,41.70
2023-02-28T08:14:40.631Z,41.70
2023-02-28T08:15:43.829Z,41.80
2023-02-28T08:16:46.109Z,41.80
2023-02-28T08:17:48.403Z,41.80
2023-02-28T08:18:54.196Z,41.70
2023-02-28T08:19:56.513Z,41.40
2023-02-28T08:20:58.987Z,41.60
2023-02-28T08:22:01.320Z,41.10
2023-02-28T08:23:03.753Z,41.00
2023-02-28T08:24:06.665Z,41.30
2023-02-28T08:25:09.733Z,41.90
2023-02-28T08:26:12.242Z,41.70
2023-02-28T08:27:14.836Z,41.80
2023-02-28T08:28:17.087Z,42.00
2023-02-28T08:29:19.658Z,42.00
2023-02-28T08:30:22.095Z,41.90
2023-02-28T08:31:24.639Z,41.90
2023-02-28T08:32:30.235Z,41.90
2023-02-28T08:33:32.919Z,41.90
2023-02-28T08:34:35.310Z,41.80
2023-02-28T08:35:38.371Z,41.50
2023-02-28T08:36:41.572Z,41.60
2023-02-28T08:37:43.921Z,41.60
2023-02-28T08:38:46.944Z,41.50
2023-02-28T08:39:49.360Z,41.50
2023-02-28T08:40:57.672Z,41.70
2023-02-28T08:42:07.123Z,41.60
2023-02-28T08:43:10.263Z,41.70
2023-02-28T08:44:12.545Z,41.60
2023-02-28T08:45:15.858Z,41.60
2023-02-28T08:46:18.547Z,41.60
2023-02-28T08:47:21.068Z,41.60
2023-02-28T08:48:24.888Z,41.50
2023-02-28T08:49:27.396Z,41.30
2023-02-28T08:50:29.775Z,41.50
2023-02-28T08:51:32.503Z,41.50
2023-02-28T08:52:35.001Z,41.40
2023-02-28T08:53:38.626Z,41.40
2023-02-28T08:54:41.116Z,41.50
2023-02-28T08:55:43.401Z,41.60
2023-02-28T08:56:47.802Z,41.60
2023-02-28T08:57:50.151Z,41.70
2023-02-28T08:58:52.733Z,41.80
2023-02-28T08:59:55.338Z,41.80
2023-02-28T09:00:58.134Z,41.70
2023-02-28T09:02:00.623Z,41.80
2023-02-28T09:03:03.006Z,41.70
2023-02-28T09:04:07.880Z,41.70
2023-02-28T09:05:10.258Z,41.70
2023-02-28T09:06:14.168Z,41.70
2023-02-28T09:07:16.660Z,41.70
2023-02-28T09:08:19.998Z,41.60
2023-02-28T09:09:22.644Z,41.80
2023-02-28T09:10:25.038Z,41.40
2023-02-28T09:11:27.752Z,41.70
2023-02-28T09:12:34.384Z,41.70
2023-02-28T09:13:37.188Z,41.70
2023-02-28T09:14:40.328Z,41.80
2023-02-28T09:15:42.697Z,41.60
2023-02-28T09:16:45.075Z,41.70
2023-02-28T09:17:48.706Z,41.60
2023-02-28T09:18:51.223Z,41.40
2023-02-28T09:19:53.641Z,41.30
2023-02-28T09:20:56.494Z,41.40
2023-02-28T09:21:59.055Z,41.40
2023-02-28T09:23:01.447Z,41.40
2023-02-28T09:24:04.236Z,41.10
2023-02-28T09:25:06.814Z,41.10
2023-02-28T09:26:14.092Z,41.10
2023-02-28T09:27:16.792Z,40.90
2023-02-28T09:28:19.684Z,41.30
2023-02-28T09:29:22.033Z,41.30
2023-02-28T09:30:24.380Z,41.60
2023-02-28T09:31:29.305Z,41.50
2023-02-28T09:32:31.867Z,41.50
2023-02-28T09:33:35.197Z,41.20
2023-02-28T09:34:38.738Z,41.10
2023-02-28T09:35:41.618Z,41.10
2023-02-28T09:36:46.359Z,41.00
2023-02-28T09:37:50.451Z,40.90
2023-02-28T09:38:54.030Z,40.90
2023-02-28T09:39:56.587Z,41.10
2023-02-28T09:41:05.244Z,40.80
2023-02-28T09:42:18.335Z,40.90
2023-02-28T09:43:24.720Z,41.20
2023-02-28T09:44:36.232Z,41.40
2023-02-28T09:45:43.136Z,41.10
2023-02-28T09:46:50.642Z,41.30
2023-02-28T09:47:57.286Z,40.90
2023-02-28T09:49:05.984Z,41.10
2023-02-28T09:50:24.159Z,41.10
2023-02-28T09:51:44.910Z,41.20
2023-02-28T09:52:51.026Z,41.20
2023-02-28T09:54:01.319Z,41.90
2023-02-28T09:55:16.763Z,41.10
2023-02-28T09:56:31.371Z,41.10
2023-02-28T09:57:42.774Z,41.40
2023-02-28T09:58:50.680Z,41.40
2023-02-28T10:00:10.421Z,41.50
2023-02-28T10:01:30.856Z,41.00
2023-02-28T10:02:55.793Z,41.60
2023-02-28T10:04:04.626Z,41.90
2023-02-28T10:05:16.418Z,41.60
2023-02-28T10:06:22.880Z,41.20
2023-02-28T10:08:06.488Z,41.10
2023-02-28T10:09:15.177Z,41.10
2023-02-28T10:10:26.888Z,41.20
2023-02-28T10:11:33.366Z,41.40
2023-02-28T10:12:42.230Z,41.40
2023-02-28T10:14:06.742Z,41.10
2023-02-28T10:15:15.966Z,41.30
2023-02-28T10:16:28.715Z,41.30
2023-02-28T10:17:54.726Z,41.80
2023-02-28T10:19:11.402Z,41.80
2023-02-28T10:20:20.581Z,41.60
2023-02-28T10:21:30.329Z,41.90
2023-02-28T10:22:39.212Z,41.90
2023-02-28T10:23:42.524Z,41.90
2023-02-28T10:24:47.806Z,42.00
2023-02-28T10:26:04.441Z,41.90
2023-02-28T10:27:20.560Z,42.20
2023-02-28T10:28:23.043Z,40.80
2023-02-28T10:29:25.674Z,41.10
2023-02-28T10:30:28.786Z,41.70
2023-02-28T10:31:31.218Z,41.80
2023-02-28T10:32:36.544Z,42.00
2023-02-28T10:33:39.034Z,42.10
2023-02-28T10:34:41.450Z,42.00
2023-02-28T10:35:43.808Z,42.20
2023-02-28T10:36:46.500Z,42.10
2023-02-28T10:37:56.497Z,42.20
2023-02-28T10:39:00.893Z,42.20
2023-02-28T10:40:03.637Z,42.20
2023-02-28T10:41:20.559Z,42.10
2023-02-28T10:42:27.366Z,42.20
2023-02-28T10:43:30.085Z,42.20
2023-02-28T10:44:32.494Z,42.30
2023-02-28T10:45:38.033Z,42.20
2023-02-28T10:46:42.550Z,42.30
2023-02-28T10:47:56.502Z,41.70
2023-02-28T10:49:13.236Z,41.60
2023-02-28T10:50:28.628Z,41.60
2023-02-28T10:51:38.290Z,41.90
2023-02-28T10:52:41.767Z,41.80
2023-02-28T10:53:59.671Z,41.90
2023-02-28T10:55:23.959Z,41.90
2023-02-28T10:56:27.175Z,42.00
2023-02-28T10:57:31.692Z,42.00
2023-02-28T10:58:47.532Z,41.90
2023-02-28T11:00:06.558Z,42.00
2023-02-28T11:01:16.508Z,41.90
2023-02-28T11:02:38.604Z,41.90
2023-02-28T11:03:41.208Z,41.80
2023-02-28T11:04:43.829Z,41.40
2023-02-28T11:05:47.289Z,41.50
2023-02-28T11:07:02.936Z,41.70
2023-02-28T11:08:05.620Z,41.60
2023-02-28T11:09:24.521Z,41.60
2023-02-28T11:10:31.393Z,41.60
2023-02-28T11:11:44.215Z,41.60
2023-02-28T11:12:52.622Z,41.50
2023-02-28T11:14:05.792Z,41.40
2023-02-28T11:15:26.183Z,41.20
2023-02-28T11:16:39.231Z,41.10
2023-02-28T11:17:43.215Z,41.10
2023-02-28T11:18:54.733Z,41.10
2023-02-28T11:20:08.286Z,40.90
2023-02-28T11:21:19.011Z,40.80
2023-02-28T11:22:25.801Z,40.70
2023-02-28T11:23:31.223Z,40.60
2023-02-28T11:24:41.925Z,40.50
2023-02-28T11:25:50.673Z,40.50
2023-02-28T11:26:53.630Z,40.40
2023-02-28T11:28:08.574Z,40.30
2023-02-28T11:29:27.380Z,40.30
2023-02-28T11:30:35.062Z,40.30
2023-02-28T11:31:37.674Z,40.20
2023-02-28T11:32:50.223Z,40.40
2023-02-28T11:33:56.873Z,40.40
2023-02-28T11:35:18.070Z,40.40
2023-02-28T11:36:26.857Z,40.30
2023-02-28T11:37:31.428Z,40.20
2023-02-28T11:38:35.972Z,40.20
2023-02-28T11:39:38.895Z,40.30
2023-02-28T11:41:04.767Z,40.20
2023-02-28T11:42:33.426Z,40.20
2023-02-28T11:43:36.112Z,40.00
2023-02-28T11:45:04.846Z,40.00
2023-02-28T11:46:32.050Z,40.10
2023-02-28T11:48:18.209Z,40.40
2023-02-28T11:49:43.872Z,40.70
2023-02-28T11:51:20.401Z,40.20
2023-02-28T11:52:49.308Z,40.20
2023-02-28T11:53:58.028Z,40.40
2023-02-28T11:55:20.407Z,40.30
2023-02-28T11:56:38.696Z,40.20
2023-02-28T11:57:58.144Z,40.40
2023-02-28T11:59:31.936Z,40.40
2023-02-28T12:01:00.275Z,39.70
2023-02-28T12:02:25.705Z,39.70
2023-02-28T12:03:45.771Z,40.20
2023-02-28T12:05:09.073Z,40.60
2023-02-28T12:06:32.611Z,40.70
2023-02-28T12:07:46.767Z,40.80
2023-02-28T12:09:09.922Z,41.10
2023-02-28T12:10:21.659Z,41.20
2023-02-28T12:11:41.683Z,41.20
2023-02-28T12:12:58.356Z,41.30
2023-02-28T12:14:27.909Z,41.40
2023-02-28T12:15:49.398Z,41.40
2023-02-28T12:16:52.060Z,41.50
2023-02-28T12:18:10.673Z,41.50
2023-02-28T12:19:23.859Z,41.50
2023-02-28T12:20:42.090Z,41.50
2023-02-28T12:22:05.714Z,41.50
2023-02-28T12:23:33.212Z,41.60
2023-02-28T12:24:56.373Z,41.20
2023-02-28T12:26:17.870Z,41.00
2023-02-28T12:27:26.521Z,39.80
2023-02-28T12:28:36.749Z,38.90
2023-02-28T12:29:51.489Z,38.60
2023-02-28T12:31:07.260Z,38.80
2023-02-28T12:32:33.503Z,40.10
2023-02-28T12:33:42.053Z,40.40
2023-02-28T12:34:50.177Z,40.60
2023-02-28T12:35:57.998Z,40.90
2023-02-28T12:37:05.366Z,41.20
2023-02-28T12:38:20.357Z,41.20
2023-02-28T12:39:41.706Z,41.40
2023-02-28T12:40:55.107Z,41.40
2023-02-28T12:42:10.677Z,41.50
2023-02-28T12:43:16.565Z,41.50
2023-02-28T12:44:23.983Z,41.50
2023-02-28T12:45:37.613Z,41.50
2023-02-28T12:46:45.274Z,41.50
2023-02-28T12:47:53.585Z,41.40
2023-02-28T12:49:01.590Z,41.40
2023-02-28T12:50:12.290Z,41.60
2023-02-28T12:51:17.663Z,41.60
2023-02-28T12:52:32.374Z,41.70
2023-02-28T12:54:02.170Z,41.80
2023-02-28T12:55:10.236Z,41.50
2023-02-28T12:56:49.008Z,41.90
2023-02-28T12:58:06.321Z,41.80
2023-02-28T12:59:32.330Z,41.20
2023-02-28T13:00:48.023Z,41.20
2023-02-28T13:02:30.967Z,41.20
2023-02-28T13:04:12.199Z,39.80
2023-02-28T13:05:33.088Z,41.00
2023-02-28T13:06:38.147Z,41.10
2023-02-28T13:08:05.068Z,41.20
2023-02-28T13:09:13.377Z,41.20
2023-02-28T13:10:19.604Z,41.30
2023-02-28T13:11:40.521Z,41.40
2023-02-28T13:12:54.518Z,41.50
2023-02-28T13:14:05.793Z,41.60
2023-02-28T13:15:26.191Z,41.50
2023-02-28T13:16:29.020Z,41.60
2023-02-28T13:17:31.676Z,41.70
2023-02-28T13:18:43.267Z,41.70
2023-02-28T13:19:57.571Z,41.70
2023-02-28T13:21:01.510Z,41.70
2023-02-28T13:22:04.521Z,41.70
2023-02-28T13:24:00.233Z,41.70
2023-02-28T13:25:02.826Z,41.80
2023-02-28T13:26:05.576Z,41.80
2023-02-28T13:27:09.503Z,41.80
2023-02-28T13:28:34.165Z,41.80
2023-02-28T13:29:37.926Z,41.80
2023-02-28T13:31:00.448Z,41.80
2023-02-28T13:32:09.426Z,41.80
2023-02-28T13:33:28.116Z,41.80
2023-02-28T13:34:30.442Z,41.80
2023-02-28T13:35:37.806Z,41.80
2023-02-28T13:36:40.228Z,41.80
2023-02-28T13:37:50.725Z,41.90
2023-02-28T13:39:01.338Z,41.90
2023-02-28T13:40:24.215Z,41.90
2023-02-28T13:41:32.345Z,41.90
2023-02-28T13:42:45.921Z,42.00
2023-02-28T13:44:06.830Z,42.00
2023-02-28T13:45:21.834Z,42.10
2023-02-28T13:46:24.286Z,42.00
2023-02-28T13:47:30.865Z,42.00
2023-02-28T13:48:33.222Z,42.00
2023-02-28T13:49:36.767Z,42.10
2023-02-28T13:50:41.077Z,42.00
2023-02-28T13:51:47.831Z,41.70
2023-02-28T13:53:15.673Z,42.10
2023-02-28T13:54:44.634Z,42.20
2023-02-28T13:56:05.829Z,42.30
2023-02-28T13:57:32.973Z,42.20
2023-02-28T13:58:56.972Z,42.20
2023-02-28T14:00:29.418Z,42.20
2023-02-28T14:02:06.743Z,42.10
2023-02-28T14:03:41.040Z,42.20
2023-02-28T14:04:50.264Z,42.50
2023-02-28T14:06:18.711Z,42.70
2023-02-28T14:07:29.942Z,42.80
2023-02-28T14:08:34.550Z,42.70
2023-02-28T14:09:46.670Z,42.50
2023-02-28T14:10:52.559Z,36.70
2023-02-28T14:11:55.724Z,37.90
2023-02-28T14:13:18.239Z,34.60
2023-02-28T14:14:35.494Z,36.90
2023-02-28T14:15:49.328Z,38.70
2023-02-28T14:16:52.204Z,39.40
2023-02-28T14:17:56.582Z,39.90
2023-02-28T14:19:12.419Z,40.60
2023-02-28T14:20:19.060Z,41.00
2023-02-28T14:21:28.263Z,41.30
2023-02-28T14:22:43.419Z,41.30
2023-02-28T14:24:03.788Z,41.50
2023-02-28T14:25:34.139Z,41.80
2023-02-28T14:26:54.346Z,41.70
2023-02-28T14:28:11.875Z,41.80
2023-02-28T14:29:44.623Z,41.50
2023-02-28T14:31:09.435Z,41.60
2023-02-28T14:32:33.160Z,41.50
2023-02-28T14:34:12.597Z,41.70
2023-02-28T14:35:26.991Z,41.70
2023-02-28T14:36:36.039Z,41.60
2023-02-28T14:37:40.751Z,41.70
2023-02-28T14:38:47.979Z,41.70
2023-02-28T14:39:50.718Z,41.60